Time;durP1;ratioP1;P1;durP2;ratioP2;P2;SDS_P1;SDS_P2;PMS_P1;PMS_P2;Temp;Humidity;BMP_temperature;BMP_pressure;BME280_temperature;BME280_humidity;BME280_pressure;Samples;Min_cycle;Max_cycle;Signal;HPM_P1;HPM_P2
2020/03/29 00:00:37;;;;;;;31.5;10.2;;;;;;;5.65;70.10156;937.2523;;;;
2020/03/29 00:03:04;;;;;;;29.4;10.9;;;;;;;5.6;70.27539;937.3314;;;;
2020/03/29 00:05:30;;;;;;;30.9;10;;;;;;;5.54;70.18555;937.3036;;;;
2020/03/29 00:07:51;;;;;;;32;10.9;;;;;;;5.51;70.0459;937.2808;;;;
2020/03/29 00:10:16;;;;;;;38.7;10.6;;;;;;;5.61;70.02734;937.2567;;;;
2020/03/29 00:14:01;;;;;;;31.8;10.9;;;;;;;5.45;70.33887;937.3176;;;;
2020/03/29 00:16:26;;;;;;;32;10.6;;;;;;;5.38;70.75879;937.277;;;;
2020/03/29 00:18:51;;;;;;;31.9;10.5;;;;;;;5.33;71.22363;937.3039;;;;
2020/03/29 00:21:24;;;;;;;34.1;10.3;;;;;;;5.21;71.43945;937.2455;;;;
2020/03/29 00:25:58;;;;;;;33.4;9.7;;;;;;;5.12;70.84863;937.3207;;;;
2020/03/29 00:28:23;;;;;;;31.1;10.6;;;;;;;5.16;71.04785;937.2911;;;;
2020/03/29 00:30:49;;;;;;;31.2;9.7;;;;;;;5.18;71.35742;937.2761;;;;
2020/03/29 00:33:14;;;;;;;30;9.7;;;;;;;5.17;71.18652;937.2742;;;;
2020/03/29 00:35:39;;;;;;;36.5;9.8;;;;;;;5.14;71.12207;937.2581;;;;
2020/03/29 00:38:04;;;;;;;27.2;9.8;;;;;;;5.17;71.0625;937.1415;;;;
2020/03/29 00:40:29;;;;;;;35.6;10.5;;;;;;;5.15;71.16113;937.2452;;;;
2020/03/29 00:42:54;;;;;;;26.5;9.9;;;;;;;5.17;71.09473;937.2456;;;;
2020/03/29 00:45:19;;;;;;;35.7;9.9;;;;;;;5.13;71.07617;937.2278;;;;
2020/03/29 00:47:44;;;;;;;31.4;9.6;;;;;;;5.11;71.10645;937.2289;;;;
2020/03/29 00:50:09;;;;;;;27.8;10.1;;;;;;;5.09;71.00195;937.2891;;;;
2020/03/29 00:52:34;;;;;;;33.6;10.1;;;;;;;5.15;71.29492;937.264;;;;
2020/03/29 00:54:59;;;;;;;32.3;8.9;;;;;;;5.13;71.12207;937.2192;;;;
2020/03/29 00:57:25;;;;;;;32.5;10.1;;;;;;;4.98;71.58203;937.2725;;;;
2020/03/29 00:59:50;;;;;;;35.8;10.7;;;;;;;4.87;72.16113;937.2227;;;;
2020/03/29 01:02:15;;;;;;;36.2;10.2;;;;;;;4.81;72.44434;937.1998;;;;
2020/03/29 01:04:52;;;;;;;28.8;9.3;;;;;;;4.7;72.91992;937.2056;;;;
2020/03/29 01:07:16;;;;;;;33.7;9.5;;;;;;;4.6;73.31934;937.1677;;;;
2020/03/29 01:09:42;;;;;;;31.6;10;;;;;;;4.37;74.67676;937.1069;;;;
2020/03/29 01:12:07;;;;;;;25.1;9.3;;;;;;;4.4;74.5;937.0817;;;;
2020/03/29 01:14:32;;;;;;;26.9;9.5;;;;;;;4.48;74.13086;937.1711;;;;
2020/03/29 01:17:01;;;;;;;23.6;9.4;;;;;;;4.61;73.58008;937.1021;;;;
2020/03/29 01:19:26;;;;;;;31.2;9.2;;;;;;;4.61;73.31934;937.0759;;;;
2020/03/29 01:21:51;;;;;;;31.5;9.6;;;;;;;4.55;73.40234;937.0677;;;;
2020/03/29 01:24:24;;;;;;;34.5;9.9;;;;;;;4.58;73.35059;937.0242;;;;
2020/03/29 01:26:49;;;;;;;31.5;9.8;;;;;;;4.61;73.25391;937.0066;;;;
2020/03/29 01:29:14;;;;;;;30.8;10.8;;;;;;;4.55;73.52441;937.0156;;;;
2020/03/29 01:31:39;;;;;;;31.4;10.5;;;;;;;4.54;73.37695;937.0168;;;;
2020/03/29 01:34:04;;;;;;;33.4;11.4;;;;;;;4.51;73.38184;937.0276;;;;
2020/03/29 01:36:31;;;;;;;34;11.3;;;;;;;4.51;73.30566;936.983;;;;
2020/03/29 01:38:55;;;;;;;35.4;11.4;;;;;;;4.5;73.29004;936.999;;;;
2020/03/29 01:41:20;;;;;;;36.1;11.1;;;;;;;4.46;73.41895;936.9741;;;;
2020/03/29 01:43:45;;;;;;;36.3;11.1;;;;;;;4.37;73.61719;936.8837;;;;
2020/03/29 01:46:32;;;;;;;32.5;10.6;;;;;;;4.3;73.69434;936.9438;;;;
2020/03/29 01:49:10;;;;;;;32;11;;;;;;;4.29;74.05469;936.9309;;;;
2020/03/29 01:51:35;;;;;;;30;10;;;;;;;4.26;74.17383;936.8995;;;;
2020/03/29 01:54:00;;;;;;;27.9;10.2;;;;;;;4.15;74.45703;936.8926;;;;
2020/03/29 01:56:25;;;;;;;30;10.5;;;;;;;4.08;75.60254;936.8745;;;;
2020/03/29 01:58:50;;;;;;;29.3;10.5;;;;;;;3.91;76.45117;936.8928;;;;
2020/03/29 02:03:14;;;;;;;30.5;10.9;;;;;;;3.87;76.42969;936.8273;;;;
2020/03/29 02:05:39;;;;;;;30.6;10.8;;;;;;;3.93;76.08301;936.8736;;;;
2020/03/29 02:08:04;;;;;;;31.1;11.3;;;;;;;4.02;75.71582;936.8301;;;;
2020/03/29 02:10:29;;;;;;;34.1;10.9;;;;;;;4.06;75.43066;936.8472;;;;
2020/03/29 02:14:25;;;;;;;32.5;10.2;;;;;;;4;75.63477;936.8561;;;;
2020/03/29 02:16:50;;;;;;;30;10.4;;;;;;;3.9;76.22461;936.8231;;;;
2020/03/29 02:19:15;;;;;;;34.2;10.1;;;;;;;3.96;75.88574;936.8036;;;;
2020/03/29 02:21:41;;;;;;;30.8;9.9;;;;;;;4.03;75.67383;936.8628;;;;
2020/03/29 02:24:06;;;;;;;32.8;10.6;;;;;;;4.03;75.34766;936.7981;;;;
2020/03/29 02:26:31;;;;;;;31.6;10.5;;;;;;;4.02;75.21094;936.8475;;;;
2020/03/29 02:28:56;;;;;;;24.7;10.6;;;;;;;4.04;74.84277;936.8569;;;;
2020/03/29 02:31:21;;;;;;;27.3;11;;;;;;;4.01;74.72559;936.8259;;;;
2020/03/29 02:36:24;;;;;;;29.9;10.4;;;;;;;4.03;74.50586;936.7794;;;;
2020/03/29 02:38:55;;;;;;;31.6;10.8;;;;;;;3.98;74.42676;936.8403;;;;
2020/03/29 02:41:05;;;;;;;33.6;10.5;;;;;;;4;74.21777;936.8223;;;;
2020/03/29 02:43:30;;;;;;;29.9;10.4;;;;;;;4;74.48828;936.8308;;;;
2020/03/29 02:45:55;;;;;;;32.9;11.2;;;;;;;3.74;76.08105;936.834;;;;
2020/03/29 02:48:21;;;;;;;28.3;10.9;;;;;;;3.62;76.78125;936.7862;;;;
2020/03/29 02:50:46;;;;;;;32;11.3;;;;;;;3.55;77.12793;936.7835;;;;
2020/03/29 02:53:11;;;;;;;38;12.4;;;;;;;3.57;77.00684;936.7125;;;;
2020/03/29 02:55:36;;;;;;;35.1;11.8;;;;;;;3.69;76.44434;936.705;;;;
2020/03/29 02:58:01;;;;;;;35;11.2;;;;;;;3.83;75.72852;936.649;;;;
2020/03/29 03:00:27;;;;;;;33.5;11;;;;;;;3.9;75.21094;936.6528;;;;
2020/03/29 03:02:51;;;;;;;36.8;11.5;;;;;;;3.94;74.79199;936.6621;;;;
2020/03/29 03:05:16;;;;;;;31.4;11.9;;;;;;;4.01;74.23145;936.6321;;;;
2020/03/29 03:07:41;;;;;;;35.1;11.2;;;;;;;4.08;73.93848;936.5082;;;;
2020/03/29 03:10:07;;;;;;;34.4;11.4;;;;;;;4.14;73.55566;936.5873;;;;
2020/03/29 03:12:32;;;;;;;29.7;10.7;;;;;;;4.12;73.2041;936.5648;;;;
2020/03/29 03:14:57;;;;;;;30.3;10.6;;;;;;;4.15;73.15039;936.5701;;;;
2020/03/29 03:17:22;;;;;;;31.7;10.7;;;;;;;4.15;73.41113;936.5482;;;;
2020/03/29 03:19:47;;;;;;;35.3;11;;;;;;;4.09;73.23145;936.615;;;;
2020/03/29 03:22:13;;;;;;;32.1;10.8;;;;;;;4.14;73.29688;936.5376;;;;
2020/03/29 03:24:38;;;;;;;31.1;10.6;;;;;;;4.12;73.23633;936.5252;;;;
2020/03/29 03:29:33;;;;;;;29.7;11.1;;;;;;;3.98;73.73145;936.5311;;;;
2020/03/29 03:32:15;;;;;;;31.2;11.4;;;;;;;3.9;74.04199;936.5363;;;;
2020/03/29 03:34:24;;;;;;;34.3;11.8;;;;;;;3.88;74.12891;936.5466;;;;
2020/03/29 03:36:43;;;;;;;31.1;10.9;;;;;;;3.9;73.81738;936.5039;;;;
2020/03/29 03:39:08;;;;;;;35.1;11.1;;;;;;;3.95;73.9502;936.5212;;;;
2020/03/29 03:41:33;;;;;;;33.9;10.1;;;;;;;3.9;74.14453;936.4821;;;;
2020/03/29 03:43:58;;;;;;;31.8;10.4;;;;;;;3.83;74.39063;936.464;;;;
2020/03/29 03:46:24;;;;;;;34.7;11.7;;;;;;;3.58;75.52637;936.4089;;;;
2020/03/29 03:48:49;;;;;;;32.6;11.1;;;;;;;3.54;76.10254;936.4641;;;;
2020/03/29 03:51:14;;;;;;;35.2;11.2;;;;;;;3.62;75.85938;936.4626;;;;
2020/03/29 03:53:43;;;;;;;32;10.8;;;;;;;3.7;75.24512;936.4644;;;;
2020/03/29 03:56:08;;;;;;;29.9;10.9;;;;;;;3.8;74.86914;936.4542;;;;
2020/03/29 04:02:33;;;;;;;27.9;11.8;;;;;;;3.81;75.17285;936.3846;;;;
2020/03/29 04:04:55;;;;;;;34.4;11.8;;;;;;;3.82;75.17383;936.3935;;;;
2020/03/29 04:07:21;;;;;;;27.3;11.7;;;;;;;3.73;75.59863;936.4101;;;;
2020/03/29 04:09:46;;;;;;;35.4;11.4;;;;;;;3.69;76.1748;936.4294;;;;
2020/03/29 04:12:11;;;;;;;31.1;11.8;;;;;;;3.75;75.9834;936.4045;;;;
2020/03/29 04:14:36;;;;;;;29.5;11.2;;;;;;;3.75;75.9834;936.4022;;;;
2020/03/29 04:17:01;;;;;;;32.3;11;;;;;;;3.79;75.93359;936.4255;;;;
2020/03/29 04:19:26;;;;;;;30.5;11.6;;;;;;;3.8;76.01367;936.3295;;;;
2020/03/29 04:21:51;;;;;;;35;12.4;;;;;;;3.82;76.07324;936.3818;;;;
2020/03/29 04:24:17;;;;;;;30.2;11.2;;;;;;;3.92;75.45215;936.4086;;;;
2020/03/29 04:26:42;;;;;;;32.3;11.7;;;;;;;3.96;75.53711;936.3056;;;;
2020/03/29 04:29:07;;;;;;;30.3;11.2;;;;;;;4;75.25293;936.3519;;;;
2020/03/29 04:31:33;;;;;;;34.7;11.8;;;;;;;4.02;75.05371;936.3537;;;;
2020/03/29 04:33:58;;;;;;;31.2;12.5;;;;;;;4.01;75.45703;936.3644;;;;
2020/03/29 04:36:23;;;;;;;29.2;12.8;;;;;;;4.05;75.28516;936.3184;;;;
2020/03/29 04:38:48;;;;;;;31.3;12.7;;;;;;;4.06;75.52051;936.4264;;;;
2020/03/29 04:41:14;;;;;;;30.8;12.1;;;;;;;4;75.73438;936.4645;;;;
2020/03/29 04:43:39;;;;;;;30.5;11.2;;;;;;;4.04;76.27148;936.4748;;;;
2020/03/29 04:46:04;;;;;;;34.1;12.2;;;;;;;3.98;77.12695;936.4727;;;;
2020/03/29 04:48:29;;;;;;;29.5;11.1;;;;;;;3.95;77.7168;936.4269;;;;
2020/03/29 04:50:54;;;;;;;27.4;11.3;;;;;;;3.92;77.64258;936.4282;;;;
2020/03/29 04:53:19;;;;;;;31.5;12.3;;;;;;;3.95;77.38086;936.4608;;;;
2020/03/29 04:55:44;;;;;;;33.2;11.1;;;;;;;4.09;76.37109;936.4583;;;;
2020/03/29 04:58:10;;;;;;;34.8;11.8;;;;;;;4.14;75.58008;936.4542;;;;
2020/03/29 05:00:35;;;;;;;31.1;10.9;;;;;;;4.16;75.29297;936.4666;;;;
2020/03/29 05:03:00;;;;;;;28.5;10.6;;;;;;;4.17;75.51758;936.503;;;;
2020/03/29 05:05:25;;;;;;;27.5;10.5;;;;;;;4.18;75.60938;936.5253;;;;
2020/03/29 05:07:50;;;;;;;31.8;10.7;;;;;;;4.25;75.31836;936.4933;;;;
2020/03/29 05:10:15;;;;;;;30.4;10.5;;;;;;;4.29;75.10156;936.4408;;;;
2020/03/29 05:12:40;;;;;;;30.2;10.8;;;;;;;4.19;75.51172;936.4211;;;;
2020/03/29 05:15:05;;;;;;;28.4;10.4;;;;;;;4.24;75.38379;936.3709;;;;
2020/03/29 05:17:30;;;;;;;27.5;10.8;;;;;;;4.27;75.43359;936.4214;;;;
2020/03/29 05:19:58;;;;;;;24.2;10.7;;;;;;;4.27;75.18848;936.3766;;;;
2020/03/29 05:22:21;;;;;;;30.9;12.3;;;;;;;4.26;75.10742;936.4345;;;;
2020/03/29 05:24:46;;;;;;;34.6;13.8;;;;;;;4.32;75.07227;936.4244;;;;
2020/03/29 05:27:11;;;;;;;36.2;12.6;;;;;;;4.39;74.72461;936.3642;;;;
2020/03/29 05:29:36;;;;;;;33.7;13.6;;;;;;;4.41;74.75195;936.4464;;;;
2020/03/29 05:32:01;;;;;;;39.9;13.8;;;;;;;4.39;75.95117;936.54;;;;
2020/03/29 05:34:26;;;;;;;34.7;12.7;;;;;;;4.48;75.08984;936.5555;;;;
2020/03/29 05:36:51;;;;;;;30.7;12.4;;;;;;;4.58;74.46387;936.5812;;;;
2020/03/29 05:39:16;;;;;;;26.1;11.6;;;;;;;4.62;74.82031;936.5683;;;;
2020/03/29 05:41:42;;;;;;;28.2;11;;;;;;;4.74;74.16699;936.5649;;;;
2020/03/29 05:44:07;;;;;;;28.5;10.6;;;;;;;4.79;73.7793;936.5282;;;;
2020/03/29 05:46:32;;;;;;;24.7;8.9;;;;;;;4.77;74.05859;936.5988;;;;
2020/03/29 05:48:58;;;;;;;27.4;9.8;;;;;;;4.73;74.87305;936.6639;;;;
2020/03/29 05:51:32;;;;;;;22.9;9.3;;;;;;;4.77;74.9375;936.7651;;;;
2020/03/29 05:53:48;;;;;;;28.3;10.1;;;;;;;4.76;75.00391;936.8083;;;;
2020/03/29 05:56:12;;;;;;;28.1;10.7;;;;;;;4.69;75.31641;936.7928;;;;
2020/03/29 05:58:37;;;;;;;27.8;11.2;;;;;;;4.77;75.17285;936.8304;;;;
2020/03/29 06:01:03;;;;;;;33.7;11.7;;;;;;;4.82;75.00195;936.837;;;;
2020/03/29 06:03:28;;;;;;;32.3;10.6;;;;;;;4.96;74.41895;936.8608;;;;
2020/03/29 06:05:53;;;;;;;32.6;11;;;;;;;4.96;74.2373;936.863;;;;
2020/03/29 06:08:18;;;;;;;33.5;12.4;;;;;;;5.07;73.85156;936.9344;;;;
2020/03/29 06:10:43;;;;;;;29.9;10.8;;;;;;;5.03;73.87891;936.8387;;;;
2020/03/29 06:13:08;;;;;;;27.3;10.9;;;;;;;5.14;73.62695;936.863;;;;
2020/03/29 06:15:33;;;;;;;30.1;9.8;;;;;;;5.08;73.3457;936.8469;;;;
2020/03/29 06:17:58;;;;;;;28.8;10.6;;;;;;;5.07;74.17871;936.8451;;;;
2020/03/29 06:20:23;;;;;;;27;10.5;;;;;;;5.14;74.0332;936.8826;;;;
2020/03/29 06:22:48;;;;;;;24.4;10.4;;;;;;;5.23;73.56348;936.8995;;;;
2020/03/29 06:25:14;;;;;;;26.5;9.6;;;;;;;5.22;73.49414;936.9088;;;;
2020/03/29 06:27:44;;;;;;;26.8;10.4;;;;;;;5.21;73.27734;936.9533;;;;
2020/03/29 06:30:04;;;;;;;27;10.1;;;;;;;5.23;74.38574;936.9665;;;;
2020/03/29 06:32:29;;;;;;;32.9;10.5;;;;;;;5.37;73.50684;936.9221;;;;
2020/03/29 06:34:54;;;;;;;26.1;10.2;;;;;;;5.38;73.56641;937.0028;;;;
2020/03/29 06:37:19;;;;;;;31.6;10.4;;;;;;;5.48;73.06543;936.912;;;;
2020/03/29 06:39:44;;;;;;;31.6;11.5;;;;;;;5.55;73.00879;936.9745;;;;
2020/03/29 06:42:10;;;;;;;34.1;11.1;;;;;;;5.58;72.84375;936.9706;;;;
2020/03/29 06:44:35;;;;;;;29.2;10.7;;;;;;;5.64;72.22266;937.0079;;;;
2020/03/29 06:47:00;;;;;;;37;11.8;;;;;;;5.61;72.89648;937.0176;;;;
2020/03/29 06:49:25;;;;;;;31.8;10.8;;;;;;;5.74;72.28418;937.0073;;;;
2020/03/29 06:51:50;;;;;;;31.4;11.4;;;;;;;5.68;72.27441;936.9885;;;;
2020/03/29 06:54:16;;;;;;;35.2;10.7;;;;;;;5.84;71.80469;937.0236;;;;
2020/03/29 06:56:41;;;;;;;30.7;11.2;;;;;;;5.94;71.25684;937.0255;;;;
2020/03/29 06:59:06;;;;;;;30.4;11;;;;;;;6.04;71.375;937.0527;;;;
2020/03/29 07:01:31;;;;;;;29.3;11.1;;;;;;;6.24;70.93262;937.0665;;;;
2020/03/29 07:03:56;;;;;;;27.7;11.8;;;;;;;6.31;70.1084;937.1116;;;;
2020/03/29 07:06:21;;;;;;;29.7;12.9;;;;;;;6.43;70.15137;937.0927;;;;
2020/03/29 07:08:46;;;;;;;29.8;12.3;;;;;;;6.7;71.08984;937.1132;;;;
2020/03/29 07:11:11;;;;;;;30.4;12.9;;;;;;;7.08;69.56543;937.0995;;;;
2020/03/29 07:14:00;;;;;;;30.6;13.5;;;;;;;7.36;67.25391;937.0975;;;;
2020/03/29 07:16:26;;;;;;;29.9;17.9;;;;;;;7.48;66.4668;937.1381;;;;
2020/03/29 07:18:51;;;;;;;35.9;19.5;;;;;;;7.57;65.53125;937.1644;;;;
2020/03/29 07:21:16;;;;;;;31;18.1;;;;;;;7.5;65.53027;937.2241;;;;
2020/03/29 07:23:41;;;;;;;34.1;21.4;;;;;;;7.24;66.63477;937.2297;;;;
2020/03/29 07:26:06;;;;;;;45.8;23.8;;;;;;;7.16;67.32617;937.2985;;;;
2020/03/29 07:28:31;;;;;;;34;24.8;;;;;;;7.09;67.56348;937.2795;;;;
2020/03/29 07:30:56;;;;;;;39.2;27;;;;;;;7.03;67.64453;937.2767;;;;
2020/03/29 07:33:21;;;;;;;44.1;27.7;;;;;;;6.97;68.24609;937.2894;;;;
2020/03/29 07:35:46;;;;;;;41.9;29;;;;;;;7;68.50098;937.3186;;;;
2020/03/29 07:38:12;;;;;;;46;30.4;;;;;;;6.94;69.01172;937.3084;;;;
2020/03/29 07:40:37;;;;;;;37.9;29.9;;;;;;;6.86;70.11914;937.3702;;;;
2020/03/29 07:43:02;;;;;;;39;30.8;;;;;;;6.87;69.48633;937.3759;;;;
2020/03/29 07:45:27;;;;;;;42.2;29.3;;;;;;;7.01;68.89844;937.3348;;;;
2020/03/29 07:47:52;;;;;;;38.9;28.6;;;;;;;7.14;69.50781;937.4151;;;;
2020/03/29 07:50:17;;;;;;;36.8;23;;;;;;;7.24;68.75488;937.4326;;;;
2020/03/29 07:52:42;;;;;;;35.4;22;;;;;;;7.29;68.24121;937.4303;;;;
2020/03/29 07:55:26;;;;;;;38.7;22.5;;;;;;;7.24;67.89355;937.4389;;;;
2020/03/29 07:57:32;;;;;;;39;22.4;;;;;;;7.21;67.23145;937.493;;;;
2020/03/29 07:59:57;;;;;;;37.8;21.9;;;;;;;7.26;67.9873;937.4132;;;;
2020/03/29 08:02:23;;;;;;;35.5;19.3;;;;;;;7.31;67.24707;937.4941;;;;
2020/03/29 08:04:48;;;;;;;36.5;21.5;;;;;;;7.25;68.6875;937.4367;;;;
2020/03/29 08:07:17;;;;;;;39.2;26.7;;;;;;;7.4;67.3291;937.5149;;;;
2020/03/29 08:09:39;;;;;;;43.2;28;;;;;;;7.54;67.07813;937.5179;;;;
2020/03/29 08:12:04;;;;;;;42.7;27.7;;;;;;;7.7;64.62012;937.4698;;;;
2020/03/29 08:14:29;;;;;;;36.4;27.1;;;;;;;7.78;65.53906;937.3359;;;;
2020/03/29 08:16:54;;;;;;;45.5;29.8;;;;;;;7.97;64.77246;937.3465;;;;
2020/03/29 08:19:19;;;;;;;40.9;31.3;;;;;;;8.15;64.32422;937.3103;;;;
2020/03/29 08:21:44;;;;;;;37.6;30.2;;;;;;;8.4;62.76953;937.2308;;;;
2020/03/29 08:24:09;;;;;;;40.5;30.8;;;;;;;8.67;61.77637;937.2587;;;;
2020/03/29 08:26:35;;;;;;;37.8;29.8;;;;;;;9;61.0166;937.3359;;;;
2020/03/29 08:29:00;;;;;;;37.1;29.2;;;;;;;9.35;59.30957;937.2765;;;;
2020/03/29 08:31:25;;;;;;;41.2;28.8;;;;;;;9.73;58.57715;937.1369;;;;
2020/03/29 08:33:50;;;;;;;37.1;26.4;;;;;;;10.08;57.33496;937.1894;;;;
2020/03/29 08:36:15;;;;;;;37.4;27.1;;;;;;;10.58;55.63281;937.1841;;;;
2020/03/29 08:38:40;;;;;;;37;26.9;;;;;;;10.94;53.79297;937.1696;;;;
2020/03/29 08:41:05;;;;;;;38.2;27;;;;;;;11.62;50.70703;937.1644;;;;
2020/03/29 08:43:31;;;;;;;38.4;26.8;;;;;;;11.72;50.30664;937.1433;;;;
2020/03/29 08:45:55;;;;;;;37.4;27.7;;;;;;;11.59;51.11621;937.1011;;;;
2020/03/29 08:48:21;;;;;;;36.1;26.8;;;;;;;11.36;51.62598;937.0895;;;;
2020/03/29 08:50:46;;;;;;;39.7;27.3;;;;;;;10.89;53.56934;937.1462;;;;
2020/03/29 08:53:11;;;;;;;37.3;28.4;;;;;;;10.48;55.35645;937.1093;;;;
2020/03/29 08:55:36;;;;;;;36.4;28.8;;;;;;;10.34;55.17871;937.1548;;;;
2020/03/29 08:58:01;;;;;;;42.8;28.8;;;;;;;10.14;55.73633;937.2067;;;;
2020/03/29 09:00:26;;;;;;;40.2;31.1;;;;;;;10.04;54.85645;937.1636;;;;
2020/03/29 09:02:55;;;;;;;38.5;30.5;;;;;;;9.88;56.07715;937.176;;;;
2020/03/29 09:05:21;;;;;;;38.6;30.9;;;;;;;9.84;56.57422;937.2281;;;;
2020/03/29 09:07:46;;;;;;;41.1;31.2;;;;;;;9.68;58.16113;937.2278;;;;
2020/03/29 09:10:11;;;;;;;41.9;31.7;;;;;;;9.46;58.10742;937.2408;;;;
2020/03/29 09:12:36;;;;;;;43.1;33.2;;;;;;;9.48;58.28125;937.2267;;;;
2020/03/29 09:15:01;;;;;;;42.3;32.8;;;;;;;9.33;58.78418;937.1936;;;;
2020/03/29 09:17:26;;;;;;;41.5;32.5;;;;;;;9.17;57.77246;937.1842;;;;
2020/03/29 09:19:51;;;;;;;46.9;33.9;;;;;;;9.05;59.34961;937.2288;;;;
2020/03/29 09:22:16;;;;;;;45.2;33.7;;;;;;;9.02;60.59668;937.1259;;;;
2020/03/29 09:24:42;;;;;;;44;34.1;;;;;;;9.07;61.25391;937.1624;;;;
2020/03/29 09:27:07;;;;;;;39.9;33.7;;;;;;;9.11;59.24316;937.1747;;;;
2020/03/29 09:29:32;;;;;;;43;33.5;;;;;;;9.07;60.2168;937.1623;;;;
2020/03/29 09:31:57;;;;;;;41.9;33.8;;;;;;;9.08;61.8457;937.1822;;;;
2020/03/29 09:34:22;;;;;;;39.5;33.5;;;;;;;9.16;61.28809;937.1619;;;;
2020/03/29 09:36:47;;;;;;;39.5;33.6;;;;;;;9.18;59.37891;937.1836;;;;
2020/03/29 09:39:12;;;;;;;40.7;32.8;;;;;;;9.14;60.55762;937.1887;;;;
2020/03/29 09:41:37;;;;;;;41.6;32.2;;;;;;;9.11;58.87988;937.2509;;;;
2020/03/29 09:44:03;;;;;;;41.6;33;;;;;;;8.81;59.74805;937.2165;;;;
2020/03/29 09:46:28;;;;;;;42.9;33.5;;;;;;;8.75;60.85352;937.1852;;;;
2020/03/29 09:48:53;;;;;;;44.8;33.5;;;;;;;8.67;61.27539;937.1348;;;;
2020/03/29 09:51:18;;;;;;;43.5;32.9;;;;;;;8.57;61.5459;937.1044;;;;
2020/03/29 09:53:43;;;;;;;41.2;31.7;;;;;;;8.61;61.38086;937.1426;;;;
2020/03/29 09:56:08;;;;;;;45;31.8;;;;;;;8.63;61.25977;937.1724;;;;
2020/03/29 09:58:33;;;;;;;42.5;32.8;;;;;;;8.75;63.12793;937.1653;;;;
2020/03/29 10:00:58;;;;;;;41.5;31.3;;;;;;;8.9;61.85352;937.1708;;;;
2020/03/29 10:03:23;;;;;;;43.4;31.1;;;;;;;8.82;61.83105;937.1142;;;;
2020/03/29 10:05:48;;;;;;;40.8;29.4;;;;;;;8.67;62.32129;937.1039;;;;
2020/03/29 10:08:13;;;;;;;42.7;30.2;;;;;;;8.6;62.25488;937.0867;;;;
2020/03/29 10:10:38;;;;;;;44;30.5;;;;;;;8.65;63.06836;937.0527;;;;
2020/03/29 10:13:04;;;;;;;42.1;30.8;;;;;;;8.66;63.47852;937.0814;;;;
2020/03/29 10:15:29;;;;;;;39.2;29.9;;;;;;;8.66;62.38867;937.0363;;;;
2020/03/29 10:17:54;;;;;;;41.2;30.4;;;;;;;8.67;62.15137;937.0452;;;;
2020/03/29 10:20:19;;;;;;;46.6;31.1;;;;;;;8.82;63.01367;937.0396;;;;
2020/03/29 10:22:44;;;;;;;43.5;32.2;;;;;;;8.9;62.16113;937.0136;;;;
2020/03/29 10:25:09;;;;;;;42.1;31.5;;;;;;;8.97;61.56934;937.0106;;;;
2020/03/29 10:27:34;;;;;;;48.1;32.8;;;;;;;8.96;62.21582;937.0121;;;;
2020/03/29 10:29:59;;;;;;;41.7;33.1;;;;;;;9.05;62.06934;936.9778;;;;
2020/03/29 10:32:24;;;;;;;46.5;33;;;;;;;9.31;63.4502;937.017;;;;
2020/03/29 10:34:49;;;;;;;43.6;31.6;;;;;;;9.33;60.73242;936.972;;;;
2020/03/29 10:37:15;;;;;;;46.3;30.8;;;;;;;9.33;60.91406;936.9927;;;;
2020/03/29 10:39:39;;;;;;;44.7;32.3;;;;;;;9.02;61.70117;936.9559;;;;
2020/03/29 10:42:05;;;;;;;44.1;32.1;;;;;;;8.81;62.30859;936.8601;;;;
2020/03/29 10:44:30;;;;;;;44;32.5;;;;;;;9.06;61.03418;936.9684;;;;
2020/03/29 10:46:58;;;;;;;41.1;31.6;;;;;;;9.47;59.99902;936.8992;;;;
2020/03/29 10:49:23;;;;;;;44.8;31.9;;;;;;;9.79;58.93945;936.918;;;;
2020/03/29 10:51:48;;;;;;;47;35.9;;;;;;;9.66;61.59961;936.8992;;;;
2020/03/29 10:54:13;;;;;;;42.7;33.5;;;;;;;9.68;57.85254;936.8731;;;;
2020/03/29 10:56:38;;;;;;;39.5;33.8;;;;;;;9.56;58.19043;936.8231;;;;
2020/03/29 10:59:03;;;;;;;40.3;33.9;;;;;;;9.64;59.13477;936.8767;;;;
2020/03/29 11:01:28;;;;;;;42.7;33.9;;;;;;;9.79;58.15234;936.7383;;;;
2020/03/29 11:03:53;;;;;;;39.5;34.3;;;;;;;9.78;57.68262;936.7572;;;;
2020/03/29 11:06:19;;;;;;;41.8;35.4;;;;;;;9.73;59.02148;936.7703;;;;
2020/03/29 11:08:45;;;;;;;40.3;34.5;;;;;;;9.83;58.86523;936.7183;;;;
2020/03/29 11:11:08;;;;;;;43.2;34.5;;;;;;;10.15;58.26953;936.7008;;;;
2020/03/29 11:13:34;;;;;;;40.1;32.9;;;;;;;10.25;59.29883;936.7364;;;;
2020/03/29 11:15:59;;;;;;;39.1;32.9;;;;;;;10.63;57.82031;936.6783;;;;
2020/03/29 11:18:24;;;;;;;39.7;32.1;;;;;;;10.78;56.8584;936.645;;;;
2020/03/29 11:20:49;;;;;;;38.9;32.3;;;;;;;11.08;58.15527;936.6002;;;;
2020/03/29 11:23:14;;;;;;;37.1;31.6;;;;;;;12.06;55.71973;936.5744;;;;
2020/03/29 11:25:39;;;;;;;38;31.1;;;;;;;13.07;51.55469;936.5659;;;;
2020/03/29 11:28:04;;;;;;;38;30.6;;;;;;;13.45;49.53027;936.4606;;;;
2020/03/29 11:30:29;;;;;;;39.6;30.1;;;;;;;13.43;49.18262;936.4783;;;;
2020/03/29 11:32:55;;;;;;;38.8;30.4;;;;;;;13.7;48.73047;936.4844;;;;
2020/03/29 11:35:19;;;;;;;38.5;30.2;;;;;;;13.81;48.30566;936.3918;;;;
2020/03/29 11:37:45;;;;;;;34.2;29.4;;;;;;;13.74;47.91797;936.4411;;;;
2020/03/29 11:40:10;;;;;;;37.1;28.5;;;;;;;13.47;48.37109;936.4207;;;;
2020/03/29 11:42:35;;;;;;;35.7;27.6;;;;;;;13.44;48.24121;936.4152;;;;
2020/03/29 11:45:00;;;;;;;36.5;29;;;;;;;12.99;49.66113;936.4492;;;;
2020/03/29 11:47:28;;;;;;;34.7;28;;;;;;;12.69;49.3291;936.3873;;;;
2020/03/29 11:49:54;;;;;;;35.1;26;;;;;;;12.24;52.12012;936.4238;;;;
2020/03/29 11:52:17;;;;;;;35.1;27.8;;;;;;;11.22;54.50195;936.405;;;;
2020/03/29 11:54:42;;;;;;;35.8;30;;;;;;;10.76;55.84961;936.4378;;;;
2020/03/29 11:57:38;;;;;;;39.8;29.7;;;;;;;10.3;56.9082;936.455;;;;
2020/03/29 12:00:02;;;;;;;35.6;30;;;;;;;9.83;58.71582;936.3922;;;;
2020/03/29 12:02:46;;;;;;;39.5;30.9;;;;;;;9.68;60.36035;936.3309;;;;
2020/03/29 12:05:11;;;;;;;39.2;31.4;;;;;;;9.46;61.1709;936.3976;;;;
2020/03/29 12:07:36;;;;;;;43.1;33.1;;;;;;;9.44;61.72656;936.3656;;;;
2020/03/29 12:10:01;;;;;;;40.8;32.4;;;;;;;9.38;62.25293;936.3686;;;;
2020/03/29 12:12:26;;;;;;;41.7;32.7;;;;;;;9.51;61.42773;936.3766;;;;
2020/03/29 12:14:51;;;;;;;41.6;32.2;;;;;;;9.52;61.02051;936.2647;;;;
2020/03/29 12:17:17;;;;;;;41.1;32.6;;;;;;;9.2;62.69336;936.3631;;;;
2020/03/29 12:19:42;;;;;;;41.7;33.5;;;;;;;9.02;63.40625;936.3817;;;;
2020/03/29 12:22:07;;;;;;;42.4;34.4;;;;;;;8.81;63.20605;936.3336;;;;
2020/03/29 12:24:32;;;;;;;44.6;34.6;;;;;;;8.63;64.61133;936.3683;;;;
2020/03/29 12:26:57;;;;;;;42.2;35.2;;;;;;;8.55;63.95117;936.3311;;;;
2020/03/29 12:29:22;;;;;;;45.3;36;;;;;;;8.58;63.85449;936.4228;;;;
2020/03/29 12:31:48;;;;;;;41.8;35.7;;;;;;;8.66;64.33301;936.3695;;;;
2020/03/29 12:34:13;;;;;;;40.5;34.9;;;;;;;8.45;64.70898;936.3513;;;;
2020/03/29 12:36:40;;;;;;;41.5;34.6;;;;;;;8.53;64.05078;936.3722;;;;
2020/03/29 12:39:07;;;;;;;42.3;35.9;;;;;;;8.4;64.31641;936.359;;;;
2020/03/29 12:41:37;;;;;;;41.7;35.4;;;;;;;8.22;65.00293;936.4361;;;;
2020/03/29 12:44:02;;;;;;;42.4;34.2;;;;;;;8.19;64.79492;936.4799;;;;
2020/03/29 12:46:31;;;;;;;42.5;33.5;;;;;;;8.16;64.23535;936.4311;;;;
2020/03/29 12:49:02;;;;;;;44;34.6;;;;;;;8.06;65.04785;936.3994;;;;
2020/03/29 12:51:26;;;;;;;39.4;34.1;;;;;;;8;65.01758;936.4718;;;;
2020/03/29 12:53:51;;;;;;;43.5;34.7;;;;;;;7.96;64.7832;936.4917;;;;
2020/03/29 12:56:16;;;;;;;43.9;34.9;;;;;;;8.07;64.46094;936.4693;;;;
2020/03/29 12:58:42;;;;;;;42.1;33.7;;;;;;;8.11;65.0791;936.5119;;;;
2020/03/29 13:01:13;;;;;;;42.1;33.8;;;;;;;8.27;64.375;936.4774;;;;
2020/03/29 13:03:38;;;;;;;43.1;33.9;;;;;;;8.29;63.90234;936.4903;;;;
2020/03/29 13:06:03;;;;;;;43.7;34.4;;;;;;;8.36;63.53711;936.5575;;;;
2020/03/29 13:08:30;;;;;;;39.4;33.3;;;;;;;8.21;63.52734;936.498;;;;
2020/03/29 13:10:54;;;;;;;39;32.8;;;;;;;8.32;63.31543;936.5051;;;;
2020/03/29 13:13:19;;;;;;;41.8;34.4;;;;;;;8.31;62.90527;936.5009;;;;
2020/03/29 13:15:44;;;;;;;42.7;33.9;;;;;;;8.31;62.66602;936.4279;;;;
2020/03/29 13:18:09;;;;;;;40.6;32.6;;;;;;;8.17;62.99805;936.4675;;;;
2020/03/29 13:20:34;;;;;;;39.1;33;;;;;;;8.22;62.86914;936.4172;;;;
2020/03/29 13:22:59;;;;;;;37.2;31.9;;;;;;;8.16;63.32617;936.5396;;;;
2020/03/29 13:25:24;;;;;;;37.1;31.7;;;;;;;8.23;63.08691;936.5053;;;;
2020/03/29 13:27:49;;;;;;;39.2;32.5;;;;;;;8.14;63.44824;936.4473;;;;
2020/03/29 13:30:21;;;;;;;36.2;31.6;;;;;;;7.82;64.25098;936.4426;;;;
2020/03/29 13:32:39;;;;;;;40.6;31.7;;;;;;;7.76;64.38867;936.5206;;;;
2020/03/29 13:35:05;;;;;;;38.5;32.3;;;;;;;7.89;63.59277;936.4311;;;;
2020/03/29 13:37:30;;;;;;;38.8;31.7;;;;;;;7.96;63.5918;936.5552;;;;
2020/03/29 13:39:55;;;;;;;38.9;32.3;;;;;;;8.01;64.01855;936.5322;;;;
2020/03/29 13:42:20;;;;;;;37.3;32.2;;;;;;;7.94;63.37305;936.4963;;;;
2020/03/29 13:44:45;;;;;;;35.8;30.9;;;;;;;7.87;63.56543;936.5306;;;;
2020/03/29 13:47:11;;;;;;;36.9;31.3;;;;;;;7.81;63.90918;936.4992;;;;
2020/03/29 13:49:36;;;;;;;38.2;30.1;;;;;;;7.83;63.62988;936.5301;;;;
2020/03/29 13:52:01;;;;;;;37.6;31.3;;;;;;;7.7;63.98438;936.4974;;;;
2020/03/29 13:54:26;;;;;;;36.4;30.2;;;;;;;7.64;64.42969;936.4734;;;;
2020/03/29 13:56:51;;;;;;;34.6;30.6;;;;;;;7.67;64.18457;936.5144;;;;
2020/03/29 13:59:16;;;;;;;35.8;31.9;;;;;;;7.7;64.34668;936.5631;;;;
2020/03/29 14:01:41;;;;;;;37.7;31.2;;;;;;;7.72;64.45215;936.5595;;;;
2020/03/29 14:04:08;;;;;;;36.2;31.1;;;;;;;7.69;64.3584;936.5528;;;;
2020/03/29 14:06:32;;;;;;;38.4;31.1;;;;;;;7.57;64.79297;936.6145;;;;
2020/03/29 14:08:58;;;;;;;38.8;32.4;;;;;;;7.43;66.47266;936.6319;;;;
2020/03/29 14:11:31;;;;;;;37.9;32.5;;;;;;;7.46;66.2959;936.5524;;;;
2020/03/29 14:13:56;;;;;;;39.2;33.3;;;;;;;7.41;66.65137;936.603;;;;
2020/03/29 14:16:21;;;;;;;39.6;33.5;;;;;;;7.43;67.00586;936.597;;;;
2020/03/29 14:18:46;;;;;;;40.5;33.2;;;;;;;7.46;67.44043;936.6103;;;;